Flight Number: EUR2060 Duration: 9:00
Departure: St.Maarten (TNCM) at 21:30 Distance: 4007 Nm
Arrival: Munich Int'l (EDDM) at 06:30 Equipment: B777

Weather Information
Juliana Airport, Saint Maarten, Netherlands Antilles (TNCM) 18-03N 063-07W 9M Feb 24, 2018 - 01:00 AM EST / 2018.02.24 0600 UTC
Wind: from the E (080 degrees) at 13 MPH (11 KT) (direction variable):0
Visibility: greater than 7 mile(s):0
Sky conditions: partly cloudy Temperature: 75 F (24 C) Dew Point: 64 F (18 C) Relative Humidity: 69% Pressure (altimeter): 30.05 in. Hg (1017 hPa)
ob: TNCM 240600Z 08011KT 040V120 9999 SCT020 24/18 Q1017 A3005 cycle: 6
Sunrise: 10:36 Sunset: 22:14 (UTC)

Munchen, Germany (EDDM) 48-21N 011-47E Feb 24, 2018 - 12:50 AM EST / 2018.02.24 0550 UTC
Wind: from the ENE (070 degrees) at 12 MPH (10 KT):0
Visibility: greater than 7 mile(s):0
Sky conditions: partly cloudy Temperature: 23 F (-5 C)
Windchill: 12 F (-11 C):1 Dew Point: 17 F (-8 C) Relative Humidity: 79% Pressure (altimeter): 30.03 in. Hg (1017 hPa)
ob: EDDM 240550Z 07010KT 9999 SCT018 M05/M08 Q1017 NOSIG cycle: 6
Sunrise: 06:06 Sunset: 16:45 (UTC)

TAF:2018/02/24 06:27 TAF EDDM 240500Z 2406/2512 07012KT 9999 SCT020 BECMG 2407/2409 07015G25KT BECMG 2418/2420 07012KT

Previous Pireps for this route
Date Aircraft Flight time Fuel used Landing rate On time
2013-02-21B7779.25231760No
2013-10-01B7779.021821500No
2013-11-03B7779.251822860No
2015-05-08B7779.041734000No
2015-06-23B7778.512001140No
2015-08-22B77710.29121897-173No
(pireps marked green are flown by you)

Route map